Time;durP1;ratioP1;P1;durP2;ratioP2;P2;SDS_P1;SDS_P2;PMS_P1;PMS_P2;Temp;Humidity;BMP_temperature;BMP_pressure;BME280_temperature;BME280_humidity;BME280_pressure;Samples;Min_cycle;Max_cycle;Signal;HPM_P1;HPM_P2
2023/01/26 00:01:21;;;;;;;38.00;18.60;;;;;;;-0.38;100.00;99757.77;271283;1266;22340;-89
2023/01/26 00:07:23;;;;;;;33.40;15.60;;;;;;;-0.42;100.00;99758.73;271261;1266;22425;-89
2023/01/26 00:13:25;;;;;;;36.70;17.40;;;;;;;-0.44;100.00;99756.23;271297;1267;22653;-90
2023/01/26 00:19:27;;;;;;;35.80;17.50;;;;;;;-0.47;100.00;99741.79;273689;1266;22283;-90
2023/01/26 00:25:28;;;;;;;36.40;17.90;;;;;;;-0.47;100.00;99737.05;271571;1266;23513;-89
2023/01/26 00:31:30;;;;;;;34.30;18.50;;;;;;;-0.48;100.00;99735.83;271290;1267;22316;-90
2023/01/26 00:37:34;;;;;;;33.50;17.00;;;;;;;-0.50;100.00;99732.35;273719;1267;22225;-90
2023/01/26 00:43:36;;;;;;;32.10;16.50;;;;;;;-0.51;100.00;99725.14;273704;1266;23247;-90
2023/01/26 00:49:38;;;;;;;28.90;15.70;;;;;;;-0.50;100.00;99715.73;273702;1267;22354;-90
2023/01/26 00:55:39;;;;;;;29.00;16.20;;;;;;;-0.46;100.00;99710.58;273753;1266;23665;-89
2023/01/26 01:01:41;;;;;;;26.40;14.50;;;;;;;-0.43;100.00;99697.94;270552;1266;22469;-89
2023/01/26 01:07:43;;;;;;;31.00;16.10;;;;;;;-0.49;100.00;99688.34;272707;1266;22425;-90
2023/01/26 01:13:45;;;;;;;34.20;16.70;;;;;;;-0.56;100.00;99686.74;273607;1266;22855;-90
2023/01/26 01:19:48;;;;;;;31.80;17.40;;;;;;;-0.61;100.00;99690.63;273105;1266;23945;-89
2023/01/26 01:25:57;;;;;;;27.70;15.00;;;;;;;-0.65;100.00;99691.63;270261;1266;22603;-89
2023/01/26 01:31:59;;;;;;;30.20;15.30;;;;;;;-0.69;100.00;99683.88;271970;1266;22416;-91
2023/01/26 01:38:01;;;;;;;22.70;14.10;;;;;;;-0.73;100.00;99670.47;271634;1267;23312;-90
2023/01/26 01:44:23;;;;;;;27.30;14.40;;;;;;;-0.74;100.00;99666.89;270205;1267;23324;-90
2023/01/26 01:50:25;;;;;;;32.50;17.10;;;;;;;-0.73;100.00;99670.26;272014;1266;22223;-90
2023/01/26 01:56:28;;;;;;;26.90;13.80;;;;;;;-0.72;100.00;99669.61;273698;1267;22338;-90
2023/01/26 02:02:30;;;;;;;28.00;15.30;;;;;;;-0.75;100.00;99670.39;273689;1266;23050;-90
2023/01/26 02:08:35;;;;;;;27.30;14.90;;;;;;;-0.74;100.00;99670.42;273722;1267;22299;-90
2023/01/26 02:14:38;;;;;;;28.40;15.60;;;;;;;-0.72;100.00;99666.21;270489;1267;25477;-90
2023/01/26 02:20:45;;;;;;;29.40;15.60;;;;;;;-0.72;100.00;99657.71;270658;1266;23975;-90
2023/01/26 02:26:48;;;;;;;28.50;15.40;;;;;;;-0.70;100.00;99649.64;270134;1267;22534;-90
2023/01/26 02:32:50;;;;;;;26.30;14.00;;;;;;;-0.67;100.00;99645.45;269793;1266;22845;-89
2023/01/26 02:39:01;;;;;;;24.60;14.30;;;;;;;-0.67;100.00;99636.30;272171;1267;22280;-91
2023/01/26 02:45:14;;;;;;;31.10;15.70;;;;;;;-0.70;100.00;99629.89;273745;1267;22357;-89
2023/01/26 02:51:16;;;;;;;30.90;16.80;;;;;;;-0.71;100.00;99627.27;272481;1266;22572;-89
2023/01/26 02:57:18;;;;;;;28.80;14.70;;;;;;;-0.73;100.00;99624.67;270730;1267;22576;-89
2023/01/26 03:03:40;;;;;;;25.60;13.80;;;;;;;-0.72;100.00;99619.70;270298;1257;22591;-89
2023/01/26 03:09:42;;;;;;;31.00;15.30;;;;;;;-0.76;100.00;99610.29;272645;1268;22329;-89
2023/01/26 03:15:51;;;;;;;29.60;15.60;;;;;;;-0.78;100.00;99614.13;273571;1267;22360;-90
2023/01/26 03:28:13;;;;;;;32.60;17.70;;;;;;;-0.80;100.00;99601.25;273564;1267;22400;-89
2023/01/26 03:34:15;;;;;;;32.40;17.80;;;;;;;-0.79;100.00;99600.36;273661;1269;22346;-89
2023/01/26 03:59:36;;;;;;;30.10;16.60;;;;;;;-0.91;100.00;99583.80;273787;1267;22387;-90
2023/01/26 04:11:59;;;;;;;38.10;20.20;;;;;;;-0.88;100.00;99580.59;272407;1267;22208;-89
2023/01/26 04:24:26;;;;;;;33.20;17.20;;;;;;;-0.81;100.00;99575.49;271827;1267;23079;-90
2023/01/26 04:30:31;;;;;;;36.60;18.40;;;;;;;-0.78;100.00;99567.77;273642;1269;22538;-89
2023/01/26 04:36:33;;;;;;;32.50;18.10;;;;;;;-0.78;100.00;99557.77;273667;1266;22306;-89
2023/01/26 04:42:37;;;;;;;35.60;17.70;;;;;;;-0.80;100.00;99542.31;272438;1267;23454;-89
2023/01/26 04:48:40;;;;;;;30.70;15.90;;;;;;;-0.79;100.00;99542.46;273502;1267;22420;-89
2023/01/26 04:54:42;;;;;;;34.00;18.10;;;;;;;-0.84;100.00;99544.25;273791;1266;22249;-90
2023/01/26 05:00:49;;;;;;;36.40;17.80;;;;;;;-0.89;100.00;99535.98;272496;1266;22284;-89
2023/01/26 05:06:51;;;;;;;36.00;17.40;;;;;;;-0.86;100.00;99526.33;270941;1267;24375;-89
2023/01/26 05:12:53;;;;;;;37.10;18.60;;;;;;;-0.89;100.00;99525.60;271928;1266;23638;-90
2023/01/26 05:19:05;;;;;;;32.40;17.50;;;;;;;-0.88;100.00;99527.80;270894;1267;22321;-89
2023/01/26 05:25:23;;;;;;;43.80;19.50;;;;;;;-0.85;100.00;99527.13;272728;1266;22472;-89
2023/01/26 05:31:41;;;;;;;35.00;17.60;;;;;;;-0.85;100.00;99532.27;271573;1267;22546;-89
2023/01/26 05:37:44;;;;;;;38.50;18.30;;;;;;;-0.85;100.00;99534.30;273487;1267;23003;-88
2023/01/26 05:43:46;;;;;;;37.30;20.30;;;;;;;-0.83;100.00;99530.15;273738;1266;22360;-88
2023/01/26 05:50:10;;;;;;;42.60;20.00;;;;;;;-0.84;100.00;99531.23;273870;1265;22230;-89
2023/01/26 05:56:13;;;;;;;34.20;17.20;;;;;;;-0.81;100.00;99529.42;273409;1266;23945;-89
2023/01/26 06:02:20;;;;;;;34.60;18.80;;;;;;;-0.84;100.00;99526.94;270830;1267;23569;-89
2023/01/26 06:08:22;;;;;;;39.20;20.30;;;;;;;-0.84;100.00;99520.21;273891;1267;22969;-88
2023/01/26 06:14:44;;;;;;;37.30;19.70;;;;;;;-0.84;100.00;99521.98;270587;1268;22407;-88
2023/01/26 06:20:46;;;;;;;41.80;19.40;;;;;;;-0.82;100.00;99522.02;270835;1266;22203;-89
2023/01/26 06:26:50;;;;;;;40.30;20.30;;;;;;;-0.85;100.00;99520.02;273506;1257;22364;-88
2023/01/26 06:32:53;;;;;;;38.70;19.80;;;;;;;-0.87;100.00;99511.83;273437;1267;22763;-88
2023/01/26 06:39:03;;;;;;;34.10;17.90;;;;;;;-0.87;100.00;99513.17;273492;1258;22988;-88
2023/01/26 06:45:06;;;;;;;35.80;18.10;;;;;;;-0.86;100.00;99520.89;273266;1267;22554;-87
2023/01/26 06:51:18;;;;;;;39.70;18.80;;;;;;;-0.83;100.00;99523.32;269325;1267;22533;-88
2023/01/26 06:57:23;;;;;;;39.70;21.30;;;;;;;-0.82;100.00;99523.36;269631;1266;22668;-88
2023/01/26 07:03:40;;;;;;;;;;;;;;;-0.83;100.00;99516.65;269913;1267;25335;-88
2023/01/26 07:09:41;;;;;;;49.00;25.20;;;;;;;-0.86;100.00;99512.88;271880;1266;22359;-89
2023/01/26 07:15:43;;;;;;;44.70;21.80;;;;;;;-0.87;100.00;99510.73;271208;1266;24043;-88
2023/01/26 07:21:47;;;;;;;40.10;19.50;;;;;;;-0.83;100.00;99512.14;273466;1267;23163;-88
2023/01/26 07:27:57;;;;;;;46.50;22.20;;;;;;;-0.81;100.00;99502.91;273742;1267;23173;-88
2023/01/26 07:33:59;;;;;;;43.10;21.20;;;;;;;-0.81;100.00;99501.30;273746;1266;22415;-87
2023/01/26 07:40:03;;;;;;;50.20;23.70;;;;;;;-0.79;100.00;99499.62;273176;1267;23355;-87
2023/01/26 07:46:05;;;;;;;54.90;25.60;;;;;;;-0.74;100.00;99492.41;272727;1267;23118;-88
2023/01/26 07:52:08;;;;;;;41.80;20.10;;;;;;;-0.72;100.00;99494.31;273770;1267;22284;-88
2023/01/26 07:58:10;;;;;;;44.60;20.90;;;;;;;-0.74;100.00;99493.90;270450;1267;22494;-87
2023/01/26 08:04:12;;;;;;;41.50;19.90;;;;;;;-0.72;100.00;99485.60;271686;1267;25501;-88
2023/01/26 08:10:15;;;;;;;41.60;22.20;;;;;;;-0.67;100.00;99490.80;272391;1267;22582;-88
2023/01/26 08:16:17;;;;;;;40.90;19.90;;;;;;;-0.61;100.00;99495.30;269732;1266;105140;-87
2023/01/26 08:22:19;;;;;;;42.00;20.00;;;;;;;-0.58;100.00;99502.50;271207;1267;23328;-88
2023/01/26 08:28:21;;;;;;;42.10;21.40;;;;;;;-0.55;100.00;99501.45;272971;1267;23139;-88
2023/01/26 08:34:25;;;;;;;44.60;21.30;;;;;;;-0.52;100.00;99495.33;272298;1266;22554;-88
2023/01/26 08:40:27;;;;;;;38.20;21.30;;;;;;;-0.50;100.00;99488.52;270188;1267;23258;-88
2023/01/26 08:46:28;;;;;;;40.10;20.10;;;;;;;-0.49;100.00;99491.64;271758;1266;23458;-88
2023/01/26 08:52:30;;;;;;;43.10;21.10;;;;;;;-0.50;100.00;99491.36;273726;1269;23623;-89
2023/01/26 08:58:32;;;;;;;41.10;20.00;;;;;;;-0.49;100.00;99496.77;273550;1269;23184;-88
2023/01/26 09:04:34;;;;;;;41.90;22.20;;;;;;;-0.47;100.00;99502.52;273859;1266;22349;-87
2023/01/26 09:10:37;;;;;;;45.90;21.70;;;;;;;-0.48;100.00;99505.11;273830;1267;22357;-87
2023/01/26 09:16:39;;;;;;;45.60;22.30;;;;;;;-0.49;100.00;99505.98;273667;1266;22870;-87
2023/01/26 09:22:41;;;;;;;42.00;21.20;;;;;;;-0.44;100.00;99504.52;273713;1267;22334;-88
2023/01/26 09:28:43;;;;;;;45.20;21.20;;;;;;;-0.38;100.00;99508.09;273882;1267;22411;-88
2023/01/26 09:34:47;;;;;;;41.60;22.50;;;;;;;-0.30;100.00;99499.26;273715;1266;22221;-88
2023/01/26 09:41:03;;;;;;;45.90;22.00;;;;;;;-0.26;100.00;99487.30;273689;1267;22208;-89
2023/01/26 09:47:13;;;;;;;42.40;21.90;;;;;;;-0.20;100.00;99478.52;273571;1267;23559;-88
2023/01/26 09:53:39;;;;;;;47.40;22.30;;;;;;;-0.13;100.00;99478.22;272523;1267;22284;-88
2023/01/26 09:59:47;;;;;;;47.20;24.20;;;;;;;-0.18;100.00;99470.92;271990;1266;22454;-88
2023/01/26 10:06:13;;;;;;;47.60;23.90;;;;;;;-0.23;100.00;99461.42;273414;1267;23088;-88
2023/01/26 10:12:35;;;;;;;45.50;23.30;;;;;;;-0.15;100.00;99451.13;273532;1267;22343;-89
2023/01/26 10:18:52;;;;;;;45.90;24.60;;;;;;;-0.08;100.00;99451.23;273781;1266;22320;-88
2023/01/26 10:24:54;;;;;;;;;;;;;;;-0.05;100.00;99445.20;273747;1267;23158;-88
2023/01/26 10:30:56;;;;;;;41.40;22.90;;;;;;;-0.02;100.00;99440.63;273827;1267;22355;-89
2023/01/26 10:37:17;;;;;;;46.40;23.40;;;;;;;0.02;100.00;99433.55;273559;1267;22513;-88
2023/01/26 10:43:20;;;;;;;43.00;22.20;;;;;;;0.07;100.00;99426.42;273580;1267;22928;-88
2023/01/26 10:49:26;;;;;;;44.60;22.80;;;;;;;0.12;100.00;99423.91;273563;1267;23399;-89
2023/01/26 10:55:29;;;;;;;43.10;21.70;;;;;;;0.22;100.00;99423.47;273666;1267;22338;-88
2023/01/26 11:01:51;;;;;;;46.10;21.70;;;;;;;0.18;100.00;99418.10;273569;1267;22408;-88
2023/01/26 11:08:02;;;;;;;40.60;21.90;;;;;;;0.18;100.00;99408.63;273683;1255;22439;-89
2023/01/26 11:14:18;;;;;;;40.00;22.10;;;;;;;0.22;100.00;99406.52;273577;1267;22707;-89
2023/01/26 11:20:42;;;;;;;;;;;;;;;0.23;100.00;99399.86;273426;1267;22462;-88
2023/01/26 11:26:53;;;;;;;40.10;20.90;;;;;;;0.27;100.00;99402.65;273665;1267;22605;-89
2023/01/26 11:33:05;;;;;;;43.30;20.80;;;;;;;0.33;100.00;99399.95;273777;1266;22476;-89
2023/01/26 11:39:13;;;;;;;40.30;21.80;;;;;;;0.31;100.00;99393.36;273660;1267;22439;-89
2023/01/26 11:45:15;;;;;;;47.80;21.50;;;;;;;0.35;100.00;99377.08;272334;1267;22642;-89
2023/01/26 11:51:36;;;;;;;44.10;21.50;;;;;;;0.35;100.00;99368.19;273710;1266;22412;-90
2023/01/26 11:57:46;;;;;;;43.10;21.80;;;;;;;0.37;100.00;99361.40;273742;1267;22431;-89
2023/01/26 12:03:49;;;;;;;39.40;20.30;;;;;;;0.39;100.00;99350.83;273554;1267;22335;-89
2023/01/26 12:09:52;;;;;;;44.10;20.20;;;;;;;0.35;100.00;99341.09;273449;1267;23311;-89
2023/01/26 12:15:57;;;;;;;40.90;22.20;;;;;;;0.31;100.00;99335.05;273639;1267;22233;-89
2023/01/26 12:22:09;;;;;;;41.20;21.30;;;;;;;0.23;100.00;99331.30;273560;1265;22372;-90
2023/01/26 12:28:17;;;;;;;40.90;20.50;;;;;;;0.21;100.00;99328.39;273496;1266;22432;-89
2023/01/26 12:34:29;;;;;;;38.90;20.30;;;;;;;0.18;100.00;99327.06;273598;1267;22403;-89
2023/01/26 12:40:42;;;;;;;41.50;21.40;;;;;;;0.16;100.00;99316.11;273498;1266;22438;-88
2023/01/26 12:46:53;;;;;;;38.00;19.90;;;;;;;0.22;100.00;99306.02;273525;1267;22362;-89
2023/01/26 12:53:07;;;;;;;39.70;20.70;;;;;;;0.22;100.00;99299.17;273726;1267;22418;-89
2023/01/26 12:59:18;;;;;;;50.80;24.80;;;;;;;0.21;100.00;99294.57;273909;1267;23103;-89
2023/01/26 13:05:26;;;;;;;42.80;22.20;;;;;;;0.19;100.00;99293.91;273686;1266;22333;-89
2023/01/26 13:11:49;;;;;;;47.60;24.10;;;;;;;0.18;100.00;99288.29;273856;1267;22403;-89
2023/01/26 13:17:54;;;;;;;49.60;24.80;;;;;;;0.25;100.00;99286.03;272910;1267;23259;-89
2023/01/26 13:23:56;;;;;;;48.20;24.10;;;;;;;0.34;100.00;99284.98;273100;1266;23194;-89
2023/01/26 13:29:59;;;;;;;50.00;23.30;;;;;;;0.38;100.00;99288.20;272817;1267;22352;-88
2023/01/26 13:36:12;;;;;;;52.80;22.80;;;;;;;0.43;100.00;99288.48;273287;1266;23065;-88
2023/01/26 13:42:18;;;;;;;43.70;22.80;;;;;;;0.44;100.00;99288.01;273179;1266;25781;-89
2023/01/26 13:48:32;;;;;;;46.10;23.00;;;;;;;0.45;100.00;99289.13;272743;1267;23325;-89
2023/01/26 13:54:34;;;;;;;49.00;24.80;;;;;;;0.44;100.00;99293.07;273606;1266;22483;-89
2023/01/26 14:00:37;;;;;;;49.90;25.30;;;;;;;0.39;100.00;99289.20;272877;1266;22475;-88
2023/01/26 14:06:41;;;;;;;50.60;24.20;;;;;;;0.33;100.00;99292.23;273710;1267;23139;-89
2023/01/26 14:12:50;;;;;;;47.50;23.40;;;;;;;0.28;100.00;99290.79;273372;1266;22208;-91
2023/01/26 14:19:03;;;;;;;69.70;35.50;;;;;;;0.23;100.00;99284.46;273633;1266;22349;-90
2023/01/26 14:25:08;;;;;;;58.20;26.00;;;;;;;0.16;100.00;99283.77;273587;1267;22396;-90
2023/01/26 14:31:14;;;;;;;51.10;24.10;;;;;;;0.10;100.00;99289.63;273788;1267;22421;-89
2023/01/26 14:37:17;;;;;;;70.10;33.00;;;;;;;0.07;100.00;99284.90;272946;1267;22593;-89
2023/01/26 14:43:19;;;;;;;64.00;30.60;;;;;;;0.04;100.00;99286.25;270943;1266;23001;-88
2023/01/26 14:49:30;;;;;;;55.30;25.40;;;;;;;0.03;100.00;99283.58;273872;1264;22355;-89
2023/01/26 14:55:35;;;;;;;50.60;24.70;;;;;;;-0.01;100.00;99283.59;273645;1266;22487;-89
2023/01/26 15:01:36;;;;;;;55.90;27.70;;;;;;;-0.02;100.00;99282.48;270378;1267;22561;-88
2023/01/26 15:07:45;;;;;;;52.60;24.90;;;;;;;-0.05;100.00;99279.91;270941;1267;23363;-89
2023/01/26 15:13:51;;;;;;;58.20;28.80;;;;;;;-0.08;100.00;99282.44;272591;1266;22397;-89
2023/01/26 15:19:53;;;;;;;54.60;25.90;;;;;;;-0.15;100.00;99277.23;272469;1266;22545;-89
2023/01/26 15:25:55;;;;;;;61.00;27.70;;;;;;;-0.24;100.00;99273.02;273895;1267;22221;-89
2023/01/26 15:31:57;;;;;;;56.50;26.50;;;;;;;-0.33;100.00;99278.44;273767;1258;22399;-89
2023/01/26 15:38:11;;;;;;;62.00;27.80;;;;;;;-0.38;100.00;99280.59;273756;1266;22375;-89
2023/01/26 15:44:16;;;;;;;53.20;26.20;;;;;;;-0.37;100.00;99285.13;272579;1266;22957;-88
2023/01/26 15:50:18;;;;;;;65.00;28.50;;;;;;;-0.40;100.00;99281.41;273564;1267;22391;-89
2023/01/26 15:56:20;;;;;;;62.20;29.70;;;;;;;-0.43;100.00;99280.35;272787;1266;23060;-89
2023/01/26 16:02:22;;;;;;;55.20;27.20;;;;;;;-0.48;100.00;99280.77;273771;1267;22248;-89
2023/01/26 16:08:24;;;;;;;56.60;26.70;;;;;;;-0.52;100.00;99282.98;273663;1267;22329;-89
2023/01/26 16:14:25;;;;;;;56.50;27.50;;;;;;;-0.57;100.00;99279.63;273579;1266;23511;-89
2023/01/26 16:20:27;;;;;;;55.60;27.00;;;;;;;-0.58;100.00;99280.23;273643;1266;22971;-89
2023/01/26 16:26:30;;;;;;;57.80;27.90;;;;;;;-0.58;100.00;99273.73;273797;1266;22882;-89
2023/01/26 16:32:32;;;;;;;60.00;28.90;;;;;;;-0.58;100.00;99268.79;271050;1266;23859;-89
2023/01/26 16:38:33;;;;;;;59.00;29.20;;;;;;;-0.60;100.00;99267.95;273540;1266;22443;-88
2023/01/26 16:44:35;;;;;;;62.20;30.30;;;;;;;-0.61;100.00;99269.64;273594;1266;22312;-89
2023/01/26 16:50:37;;;;;;;58.60;28.10;;;;;;;-0.62;100.00;99266.93;271359;1255;22551;-89
2023/01/26 16:56:38;;;;;;;62.60;29.10;;;;;;;-0.64;100.00;99262.55;269724;1266;22633;-87
2023/01/26 17:02:41;;;;;;;64.00;30.00;;;;;;;-0.67;100.00;99256.30;270913;1266;22331;-88
2023/01/26 17:08:43;;;;;;;66.70;31.80;;;;;;;-0.69;100.00;99254.79;272808;1266;24396;-87
2023/01/26 17:14:45;;;;;;;67.40;30.50;;;;;;;-0.70;100.00;99250.55;271054;1266;22242;-88
2023/01/26 17:20:46;;;;;;;63.70;31.90;;;;;;;-0.71;100.00;99245.20;271708;1267;22675;-88
2023/01/26 17:26:49;;;;;;;79.60;34.00;;;;;;;-0.74;100.00;99244.50;262589;1267;10001285;-89
2023/01/26 17:32:50;;;;;;;70.90;33.50;;;;;;;-0.78;100.00;99242.68;271568;1266;22366;-89
2023/01/26 17:38:52;;;;;;;68.00;31.70;;;;;;;-0.79;100.00;99243.67;273787;1267;22388;-89
2023/01/26 17:44:56;;;;;;;61.70;29.70;;;;;;;-0.80;100.00;99250.66;273732;1266;22729;-89
2023/01/26 17:50:58;;;;;;;61.60;28.80;;;;;;;-0.83;100.00;99252.58;273845;1267;23453;-88
2023/01/26 17:56:59;;;;;;;52.80;27.90;;;;;;;-0.83;100.00;99257.45;273483;1267;22382;-88
2023/01/26 18:03:01;;;;;;;58.50;27.40;;;;;;;-0.84;100.00;99254.98;273720;1266;22191;-88
2023/01/26 18:09:03;;;;;;;63.90;29.90;;;;;;;-0.85;100.00;99259.20;273666;1266;22315;-89
2023/01/26 18:15:05;;;;;;;70.80;32.30;;;;;;;-0.86;100.00;99261.20;273217;1266;23613;-88
2023/01/26 18:21:15;;;;;;;55.50;27.70;;;;;;;-0.87;100.00;99263.80;271297;1266;22459;-88
2023/01/26 18:27:17;;;;;;;65.00;30.40;;;;;;;-0.87;100.00;99262.77;273623;1267;23180;-88
2023/01/26 18:33:19;;;;;;;63.80;31.30;;;;;;;-0.87;100.00;99270.05;274161;1269;22409;-88
2023/01/26 18:39:20;;;;;;;66.60;34.10;;;;;;;-0.89;100.00;99268.08;273759;1266;22637;-88
2023/01/26 18:45:23;;;;;;;96.40;44.90;;;;;;;-0.88;100.00;99270.86;273604;1267;22445;-88
2023/01/26 18:51:25;;;;;;;69.50;33.10;;;;;;;-0.89;100.00;99274.31;273640;1266;22323;-88
2023/01/26 18:57:27;;;;;;;61.60;30.60;;;;;;;-0.90;100.00;99281.41;273761;1267;22307;-88
2023/01/26 19:03:29;;;;;;;65.50;31.10;;;;;;;-0.90;100.00;99284.27;273685;1267;22333;-88
2023/01/26 19:09:34;;;;;;;67.90;31.90;;;;;;;-0.92;100.00;99275.85;273628;1267;22756;-88
2023/01/26 19:15:36;;;;;;;77.10;38.30;;;;;;;-0.93;100.00;99278.23;273820;1266;23046;-88
2023/01/26 19:21:38;;;;;;;96.70;43.10;;;;;;;-0.95;100.00;99282.10;273601;1267;22414;-88
2023/01/26 19:27:39;;;;;;;79.40;36.50;;;;;;;-0.97;100.00;99268.75;273579;1266;22529;-88
2023/01/26 19:33:41;;;;;;;72.70;35.90;;;;;;;-1.00;100.00;99263.31;273608;1268;22222;-88
2023/01/26 19:39:42;;;;;;;92.00;42.70;;;;;;;-1.03;100.00;99260.50;273730;1266;23226;-88
2023/01/26 19:45:52;;;;;;;77.10;35.40;;;;;;;-1.05;100.00;99250.23;273681;1267;22359;-88
2023/01/26 19:51:55;;;;;;;72.40;35.80;;;;;;;-1.08;100.00;99247.11;273675;1262;23028;-88
2023/01/26 19:57:57;;;;;;;67.10;33.40;;;;;;;-1.10;100.00;99244.73;272520;1267;22359;-87
2023/01/26 20:04:04;;;;;;;74.20;34.60;;;;;;;-1.11;100.00;99238.92;273670;1267;22433;-87
2023/01/26 20:10:06;;;;;;;79.80;37.10;;;;;;;-1.12;100.00;99238.90;273803;1266;22353;-88
2023/01/26 20:16:09;;;;;;;71.00;34.00;;;;;;;-1.14;100.00;99235.27;273767;1266;111828;-88
2023/01/26 20:22:11;;;;;;;77.60;36.00;;;;;;;-1.13;100.00;99232.85;273779;1266;23239;-88
2023/01/26 20:28:13;;;;;;;72.00;35.80;;;;;;;-1.15;100.00;99229.59;271002;1267;23060;-88
2023/01/26 20:34:15;;;;;;;79.60;35.60;;;;;;;-1.20;100.00;99227.45;272969;1266;22827;-87
2023/01/26 20:40:17;;;;;;;77.10;36.00;;;;;;;-1.21;100.00;99223.08;271593;1267;23242;-87
2023/01/26 20:46:22;;;;;;;80.00;35.90;;;;;;;-1.23;100.00;99223.33;270335;1267;22521;-88
2023/01/26 20:52:24;;;;;;;65.30;30.30;;;;;;;-1.22;100.00;99227.77;270507;1267;22371;-88
2023/01/26 20:58:25;;;;;;;71.00;34.30;;;;;;;-1.23;100.00;99230.90;273123;1266;25193;-87
2023/01/26 21:04:29;;;;;;;65.90;32.50;;;;;;;-1.22;100.00;99228.16;270931;1267;22560;-88
2023/01/26 21:10:34;;;;;;;77.10;33.80;;;;;;;-1.25;100.00;99232.22;271114;1266;22352;-89
2023/01/26 21:16:36;;;;;;;71.90;33.10;;;;;;;-1.24;100.00;99227.15;273287;1266;22693;-88
2023/01/26 21:22:37;;;;;;;69.60;34.60;;;;;;;-1.23;100.00;99225.13;272961;1266;23174;-89
2023/01/26 21:28:39;;;;;;;68.10;32.90;;;;;;;-1.20;100.00;99224.83;273799;1266;23239;-88
2023/01/26 21:34:41;;;;;;;69.80;33.60;;;;;;;-1.21;100.00;99224.85;272896;1267;23558;-89
2023/01/26 21:40:43;;;;;;;78.30;38.20;;;;;;;-1.20;100.00;99224.79;271763;1267;22594;-89
2023/01/26 21:46:46;;;;;;;75.00;36.20;;;;;;;-1.21;100.00;99219.86;271071;1265;22234;-89
2023/01/26 21:52:57;;;;;;;69.40;34.00;;;;;;;-1.25;100.00;99213.27;270141;1266;22586;-88
2023/01/26 21:59:03;;;;;;;77.70;38.50;;;;;;;-1.28;100.00;99205.09;270245;1266;24420;-89
2023/01/26 22:05:06;;;;;;;73.00;34.80;;;;;;;-1.30;100.00;99203.97;270159;1266;24022;-89
2023/01/26 22:11:08;;;;;;;70.30;34.80;;;;;;;-1.31;100.00;99199.43;272012;1266;22208;-88
2023/01/26 22:17:09;;;;;;;78.40;34.70;;;;;;;-1.31;100.00;99194.33;272903;1266;22591;-88
2023/01/26 22:23:12;;;;;;;70.70;35.50;;;;;;;-1.31;100.00;99194.65;272373;1266;22705;-89
2023/01/26 22:29:15;;;;;;;80.40;37.00;;;;;;;-1.32;100.00;99195.36;270406;1267;22531;-89
2023/01/26 22:35:17;;;;;;;81.40;39.30;;;;;;;-1.30;100.00;99196.20;270751;1266;23271;-89
2023/01/26 22:41:29;;;;;;;73.10;35.00;;;;;;;-1.31;100.00;99193.27;270978;1267;22413;-89
2023/01/26 22:47:31;;;;;;;71.90;34.00;;;;;;;-1.33;100.00;99190.38;273417;1267;22548;-89
2023/01/26 22:53:32;;;;;;;75.90;34.40;;;;;;;-1.33;100.00;99183.56;271780;1266;23743;-89
2023/01/26 22:59:34;;;;;;;74.20;34.20;;;;;;;-1.32;100.00;99186.18;273813;1267;22215;-88
2023/01/26 23:05:36;;;;;;;77.20;36.20;;;;;;;-1.32;100.00;99182.43;271235;1253;22613;-89
2023/01/26 23:11:38;;;;;;;72.40;33.80;;;;;;;-1.33;100.00;99177.28;270861;1267;22570;-88
2023/01/26 23:17:39;;;;;;;73.30;34.90;;;;;;;-1.33;100.00;99176.46;269610;1267;25456;-87
2023/01/26 23:23:41;;;;;;;76.50;35.60;;;;;;;-1.35;100.00;99177.37;271062;1267;22368;-88
2023/01/26 23:29:42;;;;;;;77.30;35.60;;;;;;;-1.37;100.00;99178.21;272938;1267;22333;-87
2023/01/26 23:35:45;;;;;;;70.20;34.60;;;;;;;-1.37;100.00;99179.67;273849;1266;23640;-88
2023/01/26 23:41:46;;;;;;;79.70;35.30;;;;;;;-1.38;100.00;99183.81;273653;1266;22531;-87
2023/01/26 23:47:48;;;;;;;76.10;35.50;;;;;;;-1.36;100.00;99184.87;273844;1267;22323;-87
2023/01/26 23:53:49;;;;;;;74.60;36.70;;;;;;;-1.35;100.00;99180.81;273651;1267;22662;-89
2023/01/26 23:59:51;;;;;;;70.10;34.30;;;;;;;-1.33;100.00;99187.75;270786;1266;23323;-89
